sensor_id;sensor_type;location;lat;lon;timestamp;temperature;humidity
58377;DHT22;58852;43.460;19.812;2022-07-17T02:19:36;461.70;1920.00
58377;DHT22;58852;43.460;19.812;2022-07-17T02:22:02;461.40;1920.00
58377;DHT22;58852;43.460;19.812;2022-07-17T02:24:28;461.50;1920.00
58377;DHT22;58852;43.460;19.812;2022-07-17T02:26:54;461.40;1920.00
58377;DHT22;58852;43.460;19.812;2022-07-17T02:29:20;461.30;1920.00
58377;DHT22;58852;43.460;19.812;2022-07-17T02:31:46;461.30;1945.60
58377;DHT22;58852;43.460;19.812;2022-07-17T02:34:11;461.40;1920.00
58377;DHT22;58852;43.460;19.812;2022-07-17T02:36:37;461.40;1894.40
58377;DHT22;58852;43.460;19.812;2022-07-17T02:39:03;461.40;1894.40
58377;DHT22;58852;43.460;19.812;2022-07-17T02:41:29;461.40;1894.40
58377;DHT22;58852;43.460;19.812;2022-07-17T02:43:54;461.40;1894.40
58377;DHT22;58852;43.460;19.812;2022-07-17T02:46:20;461.40;1894.40
58377;DHT22;58852;43.460;19.812;2022-07-17T02:48:46;461.50;1868.80
58377;DHT22;58852;43.460;19.812;2022-07-17T02:51:12;461.40;1894.40
58377;DHT22;58852;43.460;19.812;2022-07-17T02:53:37;461.40;1894.40
58377;DHT22;58852;43.460;19.812;2022-07-17T02:56:03;461.40;1868.80
58377;DHT22;58852;43.460;19.812;2022-07-17T02:58:29;461.30;1868.80
58377;DHT22;58852;43.460;19.812;2022-07-17T03:00:55;461.30;1868.80
58377;DHT22;58852;43.460;19.812;2022-07-17T03:03:21;461.20;1868.80
58377;DHT22;58852;43.460;19.812;2022-07-17T03:08:14;461.70;1843.20
58377;DHT22;58852;43.460;19.812;2022-07-17T03:10:40;461.50;1868.80
58377;DHT22;58852;43.460;19.812;2022-07-17T03:13:06;461.30;1868.80
58377;DHT22;58852;43.460;19.812;2022-07-17T03:15:32;461.30;1868.80
58377;DHT22;58852;43.460;19.812;2022-07-17T03:17:58;461.40;1843.20
58377;DHT22;58852;43.460;19.812;2022-07-17T03:20:24;461.30;1843.20
58377;DHT22;58852;43.460;19.812;2022-07-17T03:22:50;461.30;1843.20
58377;DHT22;58852;43.460;19.812;2022-07-17T03:25:16;461.30;1843.20
58377;DHT22;58852;43.460;19.812;2022-07-17T03:27:42;461.30;1843.20
58377;DHT22;58852;43.460;19.812;2022-07-17T03:30:08;461.20;1843.20
58377;DHT22;58852;43.460;19.812;2022-07-17T03:32:33;461.20;1868.80
58377;DHT22;58852;43.460;19.812;2022-07-17T07:21:36;538.50;1459.20
58377;DHT22;58852;43.460;19.812;2022-07-17T07:24:03;538.10;1459.20
58377;DHT22;58852;43.460;19.812;2022-07-17T07:26:29;538.00;1459.20
58377;DHT22;58852;43.460;19.812;2022-07-17T07:28:55;538.00;1459.20
58377;DHT22;58852;43.460;19.812;2022-07-17T07:31:21;538.00;1459.20
58377;DHT22;58852;43.460;19.812;2022-07-17T07:33:47;538.00;1459.20
58377;DHT22;58852;43.460;19.812;2022-07-17T07:36:12;538.00;1459.20
58377;DHT22;58852;43.460;19.812;2022-07-17T07:38:38;538.00;1459.20
58377;DHT22;58852;43.460;19.812;2022-07-17T07:41:04;538.00;1459.20
58377;DHT22;58852;43.460;19.812;2022-07-17T07:43:30;538.10;1484.80
58377;DHT22;58852;43.460;19.812;2022-07-17T07:45:56;538.10;1484.80
58377;DHT22;58852;43.460;19.812;2022-07-17T07:48:23;538.10;1484.80
58377;DHT22;58852;43.460;19.812;2022-07-17T07:50:49;538.20;1510.40
58377;DHT22;58852;43.460;19.812;2022-07-17T07:53:15;538.20;1510.40
58377;DHT22;58852;43.460;19.812;2022-07-17T07:55:41;538.20;1510.40
58377;DHT22;58852;43.460;19.812;2022-07-17T07:58:09;538.30;1510.40
58377;DHT22;58852;43.460;19.812;2022-07-17T08:00:36;538.40;1536.00
58377;DHT22;58852;43.460;19.812;2022-07-17T08:03:03;538.40;1536.00
58377;DHT22;58852;43.460;19.812;2022-07-17T08:05:29;538.20;1510.40
58377;DHT22;58852;43.460;19.812;2022-07-17T08:07:55;538.40;1510.40
58377;DHT22;58852;43.460;19.812;2022-07-17T08:10:21;538.40;1510.40
58377;DHT22;58852;43.460;19.812;2022-07-17T08:12:47;538.40;1510.40
58377;DHT22;58852;43.460;19.812;2022-07-17T08:15:18;538.40;1510.40
58377;DHT22;58852;43.460;19.812;2022-07-17T08:17:45;538.40;1510.40
58377;DHT22;58852;43.460;19.812;2022-07-17T08:20:12;538.50;1510.40
58377;DHT22;58852;43.460;19.812;2022-07-17T08:22:38;538.40;1484.80
58377;DHT22;58852;43.460;19.812;2022-07-17T08:25:04;538.50;1510.40
58377;DHT22;58852;43.460;19.812;2022-07-17T08:27:38;538.50;1510.40
58377;DHT22;58852;43.460;19.812;2022-07-17T08:30:05;538.50;1510.40
58377;DHT22;58852;43.460;19.812;2022-07-17T08:32:31;563.30;1536.00
58377;DHT22;58852;43.460;19.812;2022-07-17T08:34:57;563.20;1561.60
58377;DHT22;58852;43.460;19.812;2022-07-17T08:37:23;538.50;1536.00
58377;DHT22;58852;43.460;19.812;2022-07-17T08:39:50;538.20;1561.60
58377;DHT22;58852;43.460;19.812;2022-07-17T08:42:16;538.20;1561.60
58377;DHT22;58852;43.460;19.812;2022-07-17T08:44:45;538.20;1561.60
58377;DHT22;58852;43.460;19.812;2022-07-17T08:47:12;538.20;1536.00
58377;DHT22;58852;43.460;19.812;2022-07-17T08:49:43;538.30;1536.00
58377;DHT22;58852;43.460;19.812;2022-07-17T08:52:10;538.40;1536.00
58377;DHT22;58852;43.460;19.812;2022-07-17T08:54:36;538.20;1536.00
58377;DHT22;58852;43.460;19.812;2022-07-17T08:57:03;538.20;1536.00
58377;DHT22;58852;43.460;19.812;2022-07-17T08:59:30;538.30;1536.00
58377;DHT22;58852;43.460;19.812;2022-07-17T09:01:55;538.10;1561.60
58377;DHT22;58852;43.460;19.812;2022-07-17T09:04:21;538.20;1536.00
58377;DHT22;58852;43.460;19.812;2022-07-17T09:07:01;538.50;1510.40
58377;DHT22;58852;43.460;19.812;2022-07-17T09:09:27;563.30;1510.40
58377;DHT22;58852;43.460;19.812;2022-07-17T09:11:54;563.40;1510.40
58377;DHT22;58852;43.460;19.812;2022-07-17T09:14:21;563.50;1510.40
58377;DHT22;58852;43.460;19.812;2022-07-17T09:16:49;563.60;1510.40
58377;DHT22;58852;43.460;19.812;2022-07-17T09:19:33;563.60;1510.40
58377;DHT22;58852;43.460;19.812;2022-07-17T09:24:51;563.60;1510.40
58377;DHT22;58852;43.460;19.812;2022-07-17T09:30:09;563.80;1510.40
58377;DHT22;58852;43.460;19.812;2022-07-17T09:32:40;563.70;1484.80
58377;DHT22;58852;43.460;19.812;2022-07-17T09:35:09;563.70;1484.80
58377;DHT22;58852;43.460;19.812;2022-07-17T09:37:36;563.80;1484.80
58377;DHT22;58852;43.460;19.812;2022-07-17T09:40:08;563.80;1459.20
58377;DHT22;58852;43.460;19.812;2022-07-17T12:16:49;614.80;1254.40
58377;DHT22;58852;43.460;19.812;2022-07-17T12:19:17;614.60;1254.40
58377;DHT22;58852;43.460;19.812;2022-07-17T12:21:57;614.60;1254.40
58377;DHT22;58852;43.460;19.812;2022-07-17T12:24:38;614.60;1280.00
58377;DHT22;58852;43.460;19.812;2022-07-17T12:27:06;614.90;1254.40
58377;DHT22;58852;43.460;19.812;2022-07-17T12:29:33;589.70;1280.00
58377;DHT22;58852;43.460;19.812;2022-07-17T12:32:04;614.50;1280.00
58377;DHT22;58852;43.460;19.812;2022-07-17T12:34:31;614.50;1254.40
58377;DHT22;58852;43.460;19.812;2022-07-17T12:36:57;614.60;1254.40
58377;DHT22;58852;43.460;19.812;2022-07-17T12:39:23;614.80;1254.40
58377;DHT22;58852;43.460;19.812;2022-07-17T12:41:48;614.80;1228.80
58377;DHT22;58852;43.460;19.812;2022-07-17T12:44:14;614.80;1228.80
58377;DHT22;58852;43.460;19.812;2022-07-17T12:46:40;614.70;1203.20
58377;DHT22;58852;43.460;19.812;2022-07-17T12:49:06;614.70;1228.80
58377;DHT22;58852;43.460;19.812;2022-07-17T12:51:31;614.70;1254.40
58377;DHT22;58852;43.460;19.812;2022-07-17T12:53:58;614.90;1203.20
58377;DHT22;58852;43.460;19.812;2022-07-17T12:56:24;614.70;1228.80
58377;DHT22;58852;43.460;19.812;2022-07-17T12:58:50;614.60;1254.40
58377;DHT22;58852;43.460;19.812;2022-07-17T13:01:16;614.70;1228.80
58377;DHT22;58852;43.460;19.812;2022-07-17T13:03:42;614.80;1203.20
58377;DHT22;58852;43.460;19.812;2022-07-17T13:06:08;614.80;1203.20
58377;DHT22;58852;43.460;19.812;2022-07-17T13:08:34;614.80;1228.80
58377;DHT22;58852;43.460;19.812;2022-07-17T13:11:01;614.80;1177.60
58377;DHT22;58852;43.460;19.812;2022-07-17T13:13:28;614.80;1177.60
58377;DHT22;58852;43.460;19.812;2022-07-17T13:15:54;615.10;1177.60
58377;DHT22;58852;43.460;19.812;2022-07-17T13:18:21;615.10;1177.60
58377;DHT22;58852;43.460;19.812;2022-07-17T13:20:47;615.20;1177.60
58377;DHT22;58852;43.460;19.812;2022-07-17T13:23:13;615.10;1152.00
58377;DHT22;58852;43.460;19.812;2022-07-17T13:25:39;615.20;1152.00
58377;DHT22;58852;43.460;19.812;2022-07-17T13:28:06;615.20;1177.60
58377;DHT22;58852;43.460;19.812;2022-07-17T13:30:33;615.20;1152.00
58377;DHT22;58852;43.460;19.812;2022-07-17T13:32:59;615.30;1126.40
58377;DHT22;58852;43.460;19.812;2022-07-17T13:35:26;615.30;1126.40
58377;DHT22;58852;43.460;19.812;2022-07-17T13:37:52;615.30;1126.40
58377;DHT22;58852;43.460;19.812;2022-07-17T13:40:17;615.30;1126.40
58377;DHT22;58852;43.460;19.812;2022-07-17T13:42:48;640.00;1152.00
58377;DHT22;58852;43.460;19.812;2022-07-17T13:45:14;640.10;1126.40
58377;DHT22;58852;43.460;19.812;2022-07-17T13:47:39;640.10;1126.40
58377;DHT22;58852;43.460;19.812;2022-07-17T13:50:07;640.10;1152.00
58377;DHT22;58852;43.460;19.812;2022-07-17T13:52:33;615.20;1152.00
58377;DHT22;58852;43.460;19.812;2022-07-17T13:54:58;615.00;1152.00
58377;DHT22;58852;43.460;19.812;2022-07-17T13:57:25;615.10;1126.40
58377;DHT22;58852;43.460;19.812;2022-07-17T13:59:51;615.20;1126.40
58377;DHT22;58852;43.460;19.812;2022-07-17T14:02:17;640.10;1100.80
58377;DHT22;58852;43.460;19.812;2022-07-17T14:04:42;640.20;1126.40
58377;DHT22;58852;43.460;19.812;2022-07-17T14:07:09;640.10;1126.40
58377;DHT22;58852;43.460;19.812;2022-07-17T14:09:34;640.50;1100.80
58377;DHT22;58852;43.460;19.812;2022-07-17T14:12:00;640.40;1100.80
58377;DHT22;58852;43.460;19.812;2022-07-17T14:14:26;665.70;1100.80
58377;DHT22;58852;43.460;19.812;2022-07-17T14:16:52;665.80;1075.20
58377;DHT22;58852;43.460;19.812;2022-07-17T14:19:18;665.60;1075.20
58377;DHT22;58852;43.460;19.812;2022-07-17T14:21:44;665.70;1100.80
58377;DHT22;58852;43.460;19.812;2022-07-17T14:24:09;666.20;1075.20
58377;DHT22;58852;43.460;19.812;2022-07-17T14:26:36;665.90;1075.20
58377;DHT22;58852;43.460;19.812;2022-07-17T14:29:03;666.00;1049.60
58377;DHT22;58852;43.460;19.812;2022-07-17T14:31:30;666.00;1075.20
58377;DHT22;58852;43.460;19.812;2022-07-17T14:33:56;665.90;1075.20
58377;DHT22;58852;43.460;19.812;2022-07-17T14:36:22;665.60;1049.60
58377;DHT22;58852;43.460;19.812;2022-07-17T14:38:47;665.60;1100.80
58377;DHT22;58852;43.460;19.812;2022-07-17T14:41:13;665.60;1075.20
58377;DHT22;58852;43.460;19.812;2022-07-17T14:43:39;640.70;1049.60
58377;DHT22;58852;43.460;19.812;2022-07-17T14:46:05;665.60;1049.60
58377;DHT22;58852;43.460;19.812;2022-07-17T14:48:31;665.70;1049.60
58377;DHT22;58852;43.460;19.812;2022-07-17T14:50:56;665.90;1049.60
58377;DHT22;58852;43.460;19.812;2022-07-17T14:53:22;665.90;1049.60
58377;DHT22;58852;43.460;19.812;2022-07-17T15:05:33;666.50;998.40
58377;DHT22;58852;43.460;19.812;2022-07-17T15:07:59;666.30;1024.00
58377;DHT22;58852;43.460;19.812;2022-07-17T15:10:25;666.20;998.40
58377;DHT22;58852;43.460;19.812;2022-07-17T15:12:50;665.90;998.40
58377;DHT22;58852;43.460;19.812;2022-07-17T15:15:16;666.20;998.40
58377;DHT22;58852;43.460;19.812;2022-07-17T15:17:42;666.00;998.40
58377;DHT22;58852;43.460;19.812;2022-07-17T15:20:09;666.20;1024.00
58377;DHT22;58852;43.460;19.812;2022-07-17T15:22:35;666.20;998.40
58377;DHT22;58852;43.460;19.812;2022-07-17T15:25:00;666.20;998.40
58377;DHT22;58852;43.460;19.812;2022-07-17T15:27:26;666.30;998.40
58377;DHT22;58852;43.460;19.812;2022-07-17T15:29:52;666.20;998.40
58377;DHT22;58852;43.460;19.812;2022-07-17T15:32:18;666.20;998.40
58377;DHT22;58852;43.460;19.812;2022-07-17T15:34:44;665.90;1024.00
58377;DHT22;58852;43.460;19.812;2022-07-17T15:37:09;666.00;998.40
58377;DHT22;58852;43.460;19.812;2022-07-17T15:39:35;666.20;972.80
58377;DHT22;58852;43.460;19.812;2022-07-17T15:42:01;666.40;998.40
58377;DHT22;58852;43.460;19.812;2022-07-17T15:44:27;666.20;1049.60
58377;DHT22;58852;43.460;19.812;2022-07-17T15:46:53;666.20;998.40
58377;DHT22;58852;43.460;19.812;2022-07-17T15:49:19;666.20;998.40
58377;DHT22;58852;43.460;19.812;2022-07-17T15:51:46;666.00;998.40
58377;DHT22;58852;43.460;19.812;2022-07-17T15:54:12;665.90;998.40
58377;DHT22;58852;43.460;19.812;2022-07-17T15:56:38;665.90;1024.00
58377;DHT22;58852;43.460;19.812;2022-07-17T15:59:05;665.90;998.40
58377;DHT22;58852;43.460;19.812;2022-07-17T16:01:31;666.00;998.40
58377;DHT22;58852;43.460;19.812;2022-07-17T16:03:57;665.90;998.40
58377;DHT22;58852;43.460;19.812;2022-07-17T16:06:23;665.60;1024.00
58377;DHT22;58852;43.460;19.812;2022-07-17T16:08:49;665.70;998.40
58377;DHT22;58852;43.460;19.812;2022-07-17T16:11:17;665.90;1024.00
58377;DHT22;58852;43.460;19.812;2022-07-17T16:13:43;665.90;1024.00
58377;DHT22;58852;43.460;19.812;2022-07-17T16:16:08;665.90;998.40
58377;DHT22;58852;43.460;19.812;2022-07-17T16:18:34;665.60;1024.00
58377;DHT22;58852;43.460;19.812;2022-07-17T16:21:00;665.90;998.40
58377;DHT22;58852;43.460;19.812;2022-07-17T16:23:26;665.60;1024.00
58377;DHT22;58852;43.460;19.812;2022-07-17T16:25:52;640.80;998.40
58377;DHT22;58852;43.460;19.812;2022-07-17T16:28:18;665.60;1024.00
58377;DHT22;58852;43.460;19.812;2022-07-17T16:30:43;640.90;998.40
58377;DHT22;58852;43.460;19.812;2022-07-17T16:33:09;640.80;998.40
58377;DHT22;58852;43.460;19.812;2022-07-17T16:35:35;665.60;1024.00
58377;DHT22;58852;43.460;19.812;2022-07-17T16:38:01;665.60;1024.00
58377;DHT22;58852;43.460;19.812;2022-07-17T16:40:27;665.90;998.40
58377;DHT22;58852;43.460;19.812;2022-07-17T16:42:53;666.00;998.40
58377;DHT22;58852;43.460;19.812;2022-07-17T16:45:19;666.00;998.40
58377;DHT22;58852;43.460;19.812;2022-07-17T16:47:45;665.70;998.40
58377;DHT22;58852;43.460;19.812;2022-07-17T16:50:10;665.60;1075.20
58377;DHT22;58852;43.460;19.812;2022-07-17T16:52:36;665.70;1024.00
58377;DHT22;58852;43.460;19.812;2022-07-17T16:55:02;665.90;1024.00
58377;DHT22;58852;43.460;19.812;2022-07-17T16:57:28;665.70;1024.00
58377;DHT22;58852;43.460;19.812;2022-07-17T16:59:54;665.60;998.40
58377;DHT22;58852;43.460;19.812;2022-07-17T17:02:20;640.70;998.40
58377;DHT22;58852;43.460;19.812;2022-07-17T17:04:46;640.90;998.40
58377;DHT22;58852;43.460;19.812;2022-07-17T17:07:11;640.90;998.40
58377;DHT22;58852;43.460;19.812;2022-07-17T17:09:37;640.70;1024.00
58377;DHT22;58852;43.460;19.812;2022-07-17T17:12:04;640.80;1024.00
58377;DHT22;58852;43.460;19.812;2022-07-17T17:14:30;640.60;1024.00
58377;DHT22;58852;43.460;19.812;2022-07-17T17:16:56;640.70;1024.00
58377;DHT22;58852;43.460;19.812;2022-07-17T17:19:21;640.60;1024.00
58377;DHT22;58852;43.460;19.812;2022-07-17T17:21:47;640.70;1024.00
58377;DHT22;58852;43.460;19.812;2022-07-17T17:24:13;640.60;1024.00
58377;DHT22;58852;43.460;19.812;2022-07-17T17:26:39;640.50;1024.00
58377;DHT22;58852;43.460;19.812;2022-07-17T17:29:05;640.60;1024.00
58377;DHT22;58852;43.460;19.812;2022-07-17T17:31:31;640.30;1024.00
58377;DHT22;58852;43.460;19.812;2022-07-17T17:33:56;640.00;1075.20
58377;DHT22;58852;43.460;19.812;2022-07-17T17:36:22;615.30;1049.60
58377;DHT22;58852;43.460;19.812;2022-07-17T17:38:48;615.10;1075.20
58377;DHT22;58852;43.460;19.812;2022-07-17T17:41:14;615.10;1075.20
58377;DHT22;58852;43.460;19.812;2022-07-17T17:43:41;614.90;1100.80
58377;DHT22;58852;43.460;19.812;2022-07-17T17:46:07;614.80;1100.80
58377;DHT22;58852;43.460;19.812;2022-07-17T17:48:33;614.80;1100.80
58377;DHT22;58852;43.460;19.812;2022-07-17T17:50:59;614.80;1100.80
58377;DHT22;58852;43.460;19.812;2022-07-17T17:53:25;614.70;1100.80
58377;DHT22;58852;43.460;19.812;2022-07-17T17:55:51;614.70;1100.80
58377;DHT22;58852;43.460;19.812;2022-07-17T17:58:17;614.50;1126.40
58377;DHT22;58852;43.460;19.812;2022-07-17T18:00:43;614.50;1126.40
58377;DHT22;58852;43.460;19.812;2022-07-17T18:03:09;589.70;1152.00
58377;DHT22;58852;43.460;19.812;2022-07-17T18:20:13;589.40;1177.60
58377;DHT22;58852;43.460;19.812;2022-07-17T18:22:39;589.40;1177.60
58377;DHT22;58852;43.460;19.812;2022-07-17T18:25:05;589.10;1203.20
58377;DHT22;58852;43.460;19.812;2022-07-17T18:27:32;589.30;1177.60
58377;DHT22;58852;43.460;19.812;2022-07-17T18:29:58;588.90;1203.20
58377;DHT22;58852;43.460;19.812;2022-07-17T18:32:24;588.90;1203.20
58377;DHT22;58852;43.460;19.812;2022-07-17T18:47:03;588.80;1203.20
58377;DHT22;58852;43.460;19.812;2022-07-17T18:49:29;563.80;1228.80
58377;DHT22;58852;43.460;19.812;2022-07-17T18:51:56;563.80;1228.80
58377;DHT22;58852;43.460;19.812;2022-07-17T18:54:23;563.90;1228.80
58377;DHT22;58852;43.460;19.812;2022-07-17T18:56:48;563.90;1228.80
58377;DHT22;58852;43.460;19.812;2022-07-17T18:59:14;563.90;1228.80
58377;DHT22;58852;43.460;19.812;2022-07-17T19:01:40;563.90;1228.80
58377;DHT22;58852;43.460;19.812;2022-07-17T19:04:07;563.80;1228.80
58377;DHT22;58852;43.460;19.812;2022-07-17T19:06:32;563.60;1228.80
58377;DHT22;58852;43.460;19.812;2022-07-17T19:09:04;563.60;1228.80
58377;DHT22;58852;43.460;19.812;2022-07-17T19:11:31;563.50;1254.40
58377;DHT22;58852;43.460;19.812;2022-07-17T19:13:58;563.50;1254.40
58377;DHT22;58852;43.460;19.812;2022-07-17T19:16:24;563.40;1254.40
58377;DHT22;58852;43.460;19.812;2022-07-17T19:18:51;563.40;1254.40
58377;DHT22;58852;43.460;19.812;2022-07-17T19:21:17;563.40;1254.40
58377;DHT22;58852;43.460;19.812;2022-07-17T19:23:43;563.40;1254.40
58377;DHT22;58852;43.460;19.812;2022-07-17T19:26:09;563.50;1254.40
58377;DHT22;58852;43.460;19.812;2022-07-17T19:28:35;563.40;1254.40
58377;DHT22;58852;43.460;19.812;2022-07-17T19:31:00;563.40;1254.40
58377;DHT22;58852;43.460;19.812;2022-07-17T19:33:27;563.30;1280.00
58377;DHT22;58852;43.460;19.812;2022-07-17T19:35:52;563.30;1280.00
58377;DHT22;58852;43.460;19.812;2022-07-17T19:38:18;563.30;1280.00
58377;DHT22;58852;43.460;19.812;2022-07-17T19:40:46;538.50;1254.40
58377;DHT22;58852;43.460;19.812;2022-07-17T19:43:12;563.20;1305.60
58377;DHT22;58852;43.460;19.812;2022-07-17T19:45:38;538.50;1280.00
58377;DHT22;58852;43.460;19.812;2022-07-17T19:48:04;538.30;1305.60
58377;DHT22;58852;43.460;19.812;2022-07-17T19:50:30;538.00;1305.60
58377;DHT22;58852;43.460;19.812;2022-07-17T19:52:56;538.10;1305.60
58377;DHT22;58852;43.460;19.812;2022-07-17T19:55:22;538.10;1305.60
58377;DHT22;58852;43.460;19.812;2022-07-17T19:57:47;538.00;1331.20
58377;DHT22;58852;43.460;19.812;2022-07-17T20:00:13;537.90;1331.20
58377;DHT22;58852;43.460;19.812;2022-07-17T20:02:39;537.80;1356.80
58377;DHT22;58852;43.460;19.812;2022-07-17T20:05:05;537.60;1382.40
58377;DHT22;58852;43.460;19.812;2022-07-17T20:07:31;537.70;1356.80
58377;DHT22;58852;43.460;19.812;2022-07-17T20:09:57;537.70;1356.80
58377;DHT22;58852;43.460;19.812;2022-07-17T20:12:23;537.60;1382.40
58377;DHT22;58852;43.460;19.812;2022-07-17T20:17:15;537.80;1382.40
58377;DHT22;58852;43.460;19.812;2022-07-17T20:19:41;537.60;1382.40
58377;DHT22;58852;43.460;19.812;2022-07-17T20:22:08;512.80;1331.20
58377;DHT22;58852;43.460;19.812;2022-07-17T20:41:41;512.20;1433.60
58377;DHT22;58852;43.460;19.812;2022-07-17T20:44:07;487.30;1433.60
58377;DHT22;58852;43.460;19.812;2022-07-17T20:46:35;487.30;1433.60
58377;DHT22;58852;43.460;19.812;2022-07-17T20:49:00;487.20;1459.20
58377;DHT22;58852;43.460;19.812;2022-07-17T20:51:26;487.10;1433.60
58377;DHT22;58852;43.460;19.812;2022-07-17T20:53:52;487.20;1433.60
58377;DHT22;58852;43.460;19.812;2022-07-17T20:56:18;487.20;1433.60
58377;DHT22;58852;43.460;19.812;2022-07-17T20:58:44;487.10;1459.20
58377;DHT22;58852;43.460;19.812;2022-07-17T21:01:09;487.00;1459.20
58377;DHT22;58852;43.460;19.812;2022-07-17T21:03:35;486.90;1484.80
58377;DHT22;58852;43.460;19.812;2022-07-17T21:06:01;486.90;1484.80
58377;DHT22;58852;43.460;19.812;2022-07-17T21:08:34;486.70;1484.80
58377;DHT22;58852;43.460;19.812;2022-07-17T21:11:00;486.70;1484.80
58377;DHT22;58852;43.460;19.812;2022-07-17T21:13:27;487.00;1459.20
58377;DHT22;58852;43.460;19.812;2022-07-17T21:15:54;486.90;1459.20
58377;DHT22;58852;43.460;19.812;2022-07-17T21:18:21;486.80;1459.20
58377;DHT22;58852;43.460;19.812;2022-07-17T21:20:48;486.90;1459.20
58377;DHT22;58852;43.460;19.812;2022-07-17T21:23:14;486.90;1459.20
58377;DHT22;58852;43.460;19.812;2022-07-17T21:25:40;486.80;1459.20
58377;DHT22;58852;43.460;19.812;2022-07-17T21:28:06;486.80;1459.20
58377;DHT22;58852;43.460;19.812;2022-07-17T21:30:32;486.80;1459.20
58377;DHT22;58852;43.460;19.812;2022-07-17T21:32:58;486.70;1459.20
58377;DHT22;58852;43.460;19.812;2022-07-17T21:35:24;486.80;1459.20
58377;DHT22;58852;43.460;19.812;2022-07-17T21:37:51;486.70;1459.20
58377;DHT22;58852;43.460;19.812;2022-07-17T21:40:17;486.70;1459.20
58377;DHT22;58852;43.460;19.812;2022-07-17T21:42:43;486.60;1484.80
58377;DHT22;58852;43.460;19.812;2022-07-17T21:45:09;486.50;1484.80
58377;DHT22;58852;43.460;19.812;2022-07-17T21:47:35;486.50;1484.80
58377;DHT22;58852;43.460;19.812;2022-07-17T21:50:01;486.50;1484.80
58377;DHT22;58852;43.460;19.812;2022-07-17T21:52:31;486.40;1484.80
58377;DHT22;58852;43.460;19.812;2022-07-17T21:54:57;461.70;1510.40
58377;DHT22;58852;43.460;19.812;2022-07-17T21:57:23;461.70;1510.40
58377;DHT22;58852;43.460;19.812;2022-07-17T21:59:49;461.70;1510.40
58377;DHT22;58852;43.460;19.812;2022-07-17T22:02:16;461.60;1510.40
58377;DHT22;58852;43.460;19.812;2022-07-17T22:04:42;461.60;1510.40
58377;DHT22;58852;43.460;19.812;2022-07-17T22:07:08;461.50;1510.40
58377;DHT22;58852;43.460;19.812;2022-07-17T22:09:34;461.50;1510.40
58377;DHT22;58852;43.460;19.812;2022-07-17T22:12:00;461.60;1510.40
58377;DHT22;58852;43.460;19.812;2022-07-17T22:14:26;461.50;1510.40
58377;DHT22;58852;43.460;19.812;2022-07-17T22:16:52;461.40;1536.00
58377;DHT22;58852;43.460;19.812;2022-07-17T22:19:19;461.40;1536.00
58377;DHT22;58852;43.460;19.812;2022-07-17T22:21:45;461.40;1536.00
58377;DHT22;58852;43.460;19.812;2022-07-17T22:24:11;461.40;1536.00
58377;DHT22;58852;43.460;19.812;2022-07-17T22:26:37;461.40;1536.00
58377;DHT22;58852;43.460;19.812;2022-07-17T22:29:03;461.40;1536.00
58377;DHT22;58852;43.460;19.812;2022-07-17T22:31:29;461.30;1536.00
58377;DHT22;58852;43.460;19.812;2022-07-17T22:33:55;461.30;1536.00
58377;DHT22;58852;43.460;19.812;2022-07-17T22:36:21;461.20;1536.00
58377;DHT22;58852;43.460;19.812;2022-07-17T22:38:47;461.20;1536.00
58377;DHT22;58852;43.460;19.812;2022-07-17T22:41:13;461.20;1561.60
58377;DHT22;58852;43.460;19.812;2022-07-17T22:43:39;461.00;1561.60
58377;DHT22;58852;43.460;19.812;2022-07-17T22:46:05;461.10;1536.00
58377;DHT22;58852;43.460;19.812;2022-07-17T22:48:31;461.00;1561.60
58377;DHT22;58852;43.460;19.812;2022-07-17T22:50:57;461.00;1536.00
58377;DHT22;58852;43.460;19.812;2022-07-17T22:53:22;461.10;1536.00
58377;DHT22;58852;43.460;19.812;2022-07-17T22:55:48;461.20;1536.00
58377;DHT22;58852;43.460;19.812;2022-07-17T22:58:14;461.10;1536.00
58377;DHT22;58852;43.460;19.812;2022-07-17T23:00:40;461.00;1536.00
58377;DHT22;58852;43.460;19.812;2022-07-17T23:03:06;460.90;1561.60
58377;DHT22;58852;43.460;19.812;2022-07-17T23:05:32;460.90;1561.60
58377;DHT22;58852;43.460;19.812;2022-07-17T23:07:58;460.80;1561.60
58377;DHT22;58852;43.460;19.812;2022-07-17T23:10:25;460.90;1561.60
58377;DHT22;58852;43.460;19.812;2022-07-17T23:12:50;460.80;1561.60
58377;DHT22;58852;43.460;19.812;2022-07-17T23:15:16;460.80;1561.60
58377;DHT22;58852;43.460;19.812;2022-07-17T23:17:42;436.10;1536.00
58377;DHT22;58852;43.460;19.812;2022-07-17T23:20:09;436.10;1536.00
58377;DHT22;58852;43.460;19.812;2022-07-17T23:22:35;460.80;1561.60
58377;DHT22;58852;43.460;19.812;2022-07-17T23:25:01;460.80;1561.60
58377;DHT22;58852;43.460;19.812;2022-07-17T23:27:27;460.80;1561.60
58377;DHT22;58852;43.460;19.812;2022-07-17T23:29:53;436.00;1536.00
58377;DHT22;58852;43.460;19.812;2022-07-17T23:32:19;436.00;1536.00
58377;DHT22;58852;43.460;19.812;2022-07-17T23:34:59;436.10;1536.00
58377;DHT22;58852;43.460;19.812;2022-07-17T23:37:27;436.00;1536.00
58377;DHT22;58852;43.460;19.812;2022-07-17T23:39:53;435.90;1536.00
58377;DHT22;58852;43.460;19.812;2022-07-17T23:42:20;435.80;1536.00
58377;DHT22;58852;43.460;19.812;2022-07-17T23:44:46;435.80;1536.00
58377;DHT22;58852;43.460;19.812;2022-07-17T23:47:12;435.90;1536.00
58377;DHT22;58852;43.460;19.812;2022-07-17T23:49:38;435.80;1536.00
58377;DHT22;58852;43.460;19.812;2022-07-17T23:52:04;435.80;1536.00
58377;DHT22;58852;43.460;19.812;2022-07-17T23:54:30;435.70;1536.00
58377;DHT22;58852;43.460;19.812;2022-07-17T23:56:56;435.70;1536.00
58377;DHT22;58852;43.460;19.812;2022-07-17T23:59:23;435.60;1536.00
